Time;durP1;ratioP1;P1;durP2;ratioP2;P2;SDS_P1;SDS_P2;PMS_P1;PMS_P2;Temp;Humidity;BMP_temperature;BMP_pressure;BME280_temperature;BME280_humidity;BME280_pressure;Samples;Min_cycle;Max_cycle;Signal;HPM_P1;HPM_P2
2021/06/27 00:01:17;;;;;;;12.73;2.83;;;24.80;47.00;;;;;;6298030;28;20032;-74
2021/06/27 00:04:19;;;;;;;4.43;2.35;;;24.80;47.20;;;;;;6278772;28;20373;-74
2021/06/27 00:07:20;;;;;;;7.18;3.80;;;24.80;47.20;;;;;;6274481;28;20120;-74
2021/06/27 00:10:33;;;;;;;4.97;3.20;;;24.80;47.40;;;;;;6275406;28;20039;-73
2021/06/27 00:13:37;;;;;;;5.75;2.40;;;24.80;47.60;;;;;;6261819;28;20408;-74
2021/06/27 00:16:39;;;;;;;8.25;2.88;;;24.80;47.50;;;;;;6297847;28;20051;-74
2021/06/27 00:19:41;;;;;;;11.13;3.30;;;24.80;47.30;;;;;;6298867;28;20101;-74
2021/06/27 00:22:42;;;;;;;5.13;2.90;;;24.80;47.70;;;;;;6278988;28;20131;-74
2021/06/27 00:25:44;;;;;;;10.15;3.33;;;24.70;48.50;;;;;;6280613;28;20036;-74
2021/06/27 00:28:46;;;;;;;5.28;3.10;;;24.70;48.90;;;;;;6276946;28;20055;-74
2021/06/27 00:31:47;;;;;;;7.80;3.22;;;24.70;49.20;;;;;;6281152;28;20043;-74
2021/06/27 00:34:48;;;;;;;7.03;3.10;;;24.60;49.60;;;;;;6298335;28;20051;-74
2021/06/27 00:37:49;;;;;;;3.97;2.75;;;24.50;49.80;;;;;;6298298;28;20062;-73
2021/06/27 00:40:51;;;;;;;9.80;3.05;;;24.50;50.10;;;;;;6296600;28;20062;-74
2021/06/27 00:43:53;;;;;;;5.88;2.78;;;24.50;50.30;;;;;;6295842;28;20036;-74
2021/06/27 00:46:54;;;;;;;4.68;2.63;;;24.40;50.40;;;;;;6314100;28;20036;-74
2021/06/27 00:49:56;;;;;;;3.88;2.55;;;24.30;50.50;;;;;;6298895;28;20138;-74
2021/06/27 00:52:57;;;;;;;4.90;2.63;;;24.30;50.60;;;;;;6289581;28;20389;-73
2021/06/27 00:56:02;;;;;;;12.35;3.13;;;24.30;50.80;;;;;;6292792;28;20029;-73
2021/06/27 00:59:03;;;;;;;3.63;2.60;;;24.30;50.90;;;;;;6298459;28;20037;-73
2021/06/27 01:02:05;;;;;;;6.30;2.78;;;24.20;50.90;;;;;;6297973;28;20042;-73
2021/06/27 01:05:10;;;;;;;4.32;3.17;;;24.20;51.00;;;;;;6297603;28;20037;-73
2021/06/27 01:08:11;;;;;;;33.40;3.13;;;24.20;51.10;;;;;;6297784;28;20036;-74
2021/06/27 01:11:13;;;;;;;7.28;2.78;;;24.20;51.00;;;;;;6298149;28;20112;-74
2021/06/27 01:14:16;;;;;;;7.93;2.33;;;24.20;50.60;;;;;;6297998;28;20441;-73
2021/06/27 01:17:17;;;;;;;4.50;2.70;;;24.20;50.20;;;;;;6298403;28;20055;-73
2021/06/27 01:20:30;;;;;;;4.85;2.90;;;24.20;50.50;;;;;;6273425;28;20033;-74
2021/06/27 01:23:32;;;;;;;2.83;2.40;;;24.10;49.60;;;;;;6283204;28;20040;-74
2021/06/27 01:26:33;;;;;;;7.22;2.55;;;24.10;49.30;;;;;;6298147;28;20064;-74
2021/06/27 01:29:34;;;;;;;5.45;2.47;;;24.10;49.30;;;;;;6291940;28;20044;-74
2021/06/27 01:32:39;;;;;;;6.13;2.85;;;24.00;49.30;;;;;;6285478;28;20045;-74
2021/06/27 01:35:42;;;;;;;5.05;2.15;;;24.00;49.30;;;;;;6233848;28;20120;-74
2021/06/27 01:38:43;;;;;;;6.18;2.53;;;24.00;49.20;;;;;;6246948;28;20029;-74
2021/06/27 01:41:51;;;;;;;4.57;2.22;;;24.00;49.10;;;;;;6249391;28;20029;-74
2021/06/27 01:44:53;;;;;;;9.23;2.50;;;24.00;48.90;;;;;;6270617;28;20040;-74
2021/06/27 01:48:08;;;;;;;4.25;2.22;;;23.90;48.80;;;;;;6272025;28;20037;-74
2021/06/27 01:51:09;;;;;;;2.70;2.08;;;23.90;48.70;;;;;;6297674;28;20047;-74
2021/06/27 01:54:10;;;;;;;5.78;2.53;;;23.90;48.60;;;;;;6295632;28;20120;-74
2021/06/27 01:57:17;;;;;;;4.90;2.53;;;23.90;48.50;;;;;;6295733;28;20033;-74
2021/06/27 02:00:19;;;;;;;3.15;2.13;;;23.90;48.40;;;;;;6277423;28;20040;-74
2021/06/27 02:03:20;;;;;;;3.83;2.15;;;23.80;48.40;;;;;;6311126;28;20362;-73
2021/06/27 02:06:23;;;;;;;5.40;2.30;;;23.80;48.40;;;;;;6291569;28;20040;-74
2021/06/27 02:09:24;;;;;;;6.53;2.63;;;23.80;48.40;;;;;;6294408;28;20392;-74
2021/06/27 02:12:30;;;;;;;5.00;2.78;;;23.80;48.40;;;;;;6292909;28;20033;-74
2021/06/27 02:15:32;;;;;;;7.07;3.47;;;23.70;48.40;;;;;;6310852;28;20396;-73
2021/06/27 02:18:35;;;;;;;4.10;3.05;;;23.70;48.60;;;;;;6311386;28;20108;-74
2021/06/27 02:21:37;;;;;;;5.20;2.92;;;23.70;48.90;;;;;;6293864;28;20116;-73
2021/06/27 02:24:38;;;;;;;5.80;3.00;;;23.60;49.00;;;;;;6272050;28;20041;-73
2021/06/27 02:27:39;;;;;;;4.18;2.20;;;23.60;49.10;;;;;;6290166;28;20041;-73
2021/06/27 02:30:40;;;;;;;6.30;2.85;;;23.60;49.30;;;;;;6282273;28;20051;-73
2021/06/27 02:33:42;;;;;;;4.25;2.67;;;23.60;49.50;;;;;;6303357;28;20353;-73
2021/06/27 02:36:43;;;;;;;6.05;3.55;;;23.60;49.70;;;;;;6298454;28;20028;-73
2021/06/27 02:39:45;;;;;;;5.47;3.00;;;23.60;49.90;;;;;;6299744;28;20033;-74
2021/06/27 02:42:46;;;;;;;4.97;2.83;;;23.50;50.20;;;;;;6300042;28;20469;-72
2021/06/27 02:45:48;;;;;;;8.20;3.08;;;23.50;50.50;;;;;;6297687;28;20437;-73
2021/06/27 02:48:49;;;;;;;9.55;2.67;;;23.50;50.60;;;;;;6273586;28;20059;-73
2021/06/27 02:51:50;;;;;;;3.78;2.80;;;23.50;50.80;;;;;;6313845;28;20043;-75
2021/06/27 02:54:51;;;;;;;5.97;2.83;;;23.50;51.00;;;;;;6298379;28;20418;-75
2021/06/27 02:57:52;;;;;;;4.95;2.70;;;23.50;51.00;;;;;;6286518;28;20045;-75
2021/06/27 03:00:53;;;;;;;5.35;2.28;;;23.50;50.90;;;;;;6256595;28;20060;-73
2021/06/27 03:03:54;;;;;;;8.40;2.00;;;23.40;50.20;;;;;;6274539;28;20351;-75
2021/06/27 03:06:56;;;;;;;2.45;1.92;;;23.40;49.60;;;;;;6273090;28;20037;-74
2021/06/27 03:09:57;;;;;;;2.90;1.98;;;23.40;49.30;;;;;;6274222;28;20120;-74
2021/06/27 03:12:58;;;;;;;5.22;1.85;;;23.30;49.00;;;;;;6275235;28;20033;-74
2021/06/27 03:16:00;;;;;;;8.85;2.30;;;23.30;48.80;;;;;;6272734;28;20489;-74
2021/06/27 03:19:01;;;;;;;3.67;2.17;;;23.30;48.70;;;;;;6290911;28;20033;-74
2021/06/27 03:22:02;;;;;;;5.13;2.08;;;23.30;48.70;;;;;;6274004;28;20048;-74
2021/06/27 03:25:06;;;;;;;3.80;2.60;;;23.20;48.50;;;;;;6274404;28;20025;-74
2021/06/27 03:28:08;;;;;;;4.25;1.90;;;23.20;48.80;;;;;;6295753;28;20040;-74
2021/06/27 03:31:09;;;;;;;5.97;2.70;;;23.10;49.20;;;;;;6280265;28;20071;-74
2021/06/27 03:34:10;;;;;;;3.65;2.40;;;23.10;49.80;;;;;;6272841;28;20049;-74
2021/06/27 03:37:11;;;;;;;3.25;2.30;;;23.00;50.20;;;;;;6273996;28;20053;-74
2021/06/27 03:40:14;;;;;;;6.18;2.25;;;23.00;50.30;;;;;;6279096;28;20033;-74
2021/06/27 03:43:16;;;;;;;10.60;2.67;;;22.90;50.30;;;;;;6281272;28;20178;-74
2021/06/27 03:46:17;;;;;;;3.72;2.50;;;23.00;50.30;;;;;;6297869;28;20109;-74
2021/06/27 03:49:19;;;;;;;3.70;2.28;;;23.00;50.30;;;;;;6298559;28;20334;-74
2021/06/27 03:52:20;;;;;;;10.63;2.75;;;23.00;50.30;;;;;;6297848;28;20033;-74
2021/06/27 03:55:22;;;;;;;3.53;2.25;;;23.00;50.80;;;;;;6299028;28;20442;-74
2021/06/27 03:58:27;;;;;;;4.10;2.47;;;23.00;50.60;;;;;;6297751;28;20039;-74
2021/06/27 04:01:29;;;;;;;5.68;2.72;;;23.00;50.80;;;;;;6298715;28;20037;-74
2021/06/27 04:04:30;;;;;;;3.47;2.45;;;23.00;51.10;;;;;;6280960;28;20037;-74
2021/06/27 04:07:31;;;;;;;3.92;2.80;;;23.00;51.50;;;;;;6256206;28;20052;-74
2021/06/27 04:10:32;;;;;;;3.78;2.60;;;23.00;51.90;;;;;;6256990;28;20072;-74
2021/06/27 04:13:35;;;;;;;4.00;2.42;;;23.00;52.00;;;;;;6289607;28;20048;-74
2021/06/27 04:16:36;;;;;;;3.67;2.33;;;23.00;52.20;;;;;;6272346;28;20037;-75
2021/06/27 04:19:37;;;;;;;3.78;2.50;;;23.00;52.30;;;;;;6273976;28;20037;-74
2021/06/27 04:22:38;;;;;;;5.22;2.72;;;23.00;52.40;;;;;;6290103;28;20123;-74
2021/06/27 04:25:40;;;;;;;4.07;2.40;;;23.10;52.90;;;;;;6313495;28;20036;-74
2021/06/27 04:28:41;;;;;;;3.60;2.55;;;23.10;53.30;;;;;;6313914;28;20043;-74
2021/06/27 04:31:43;;;;;;;3.85;2.40;;;23.00;53.40;;;;;;6295831;28;20402;-74
2021/06/27 04:34:44;;;;;;;10.77;2.70;;;23.10;53.50;;;;;;6302630;28;20066;-74
2021/06/27 04:37:45;;;;;;;4.53;2.50;;;23.00;53.50;;;;;;6305362;28;20036;-74
2021/06/27 04:40:47;;;;;;;3.60;2.83;;;23.00;54.10;;;;;;6322243;28;20032;-75
2021/06/27 04:43:48;;;;;;;7.03;2.88;;;23.00;54.30;;;;;;6322392;28;20036;-75
2021/06/27 04:46:49;;;;;;;4.53;2.72;;;22.90;54.40;;;;;;6271116;28;20083;-74
2021/06/27 04:49:50;;;;;;;20.38;3.33;;;22.90;54.40;;;;;;6294960;28;20053;-74
2021/06/27 04:52:52;;;;;;;4.00;2.45;;;23.00;54.40;;;;;;6296716;28;20449;-74
2021/06/27 04:55:58;;;;;;;7.05;2.75;;;22.90;54.30;;;;;;6296910;28;20028;-74
2021/06/27 04:58:59;;;;;;;4.75;2.95;;;23.00;54.30;;;;;;6295761;28;20114;-74
2021/06/27 05:02:00;;;;;;;4.13;3.08;;;23.00;54.30;;;;;;6295811;28;20032;-73
2021/06/27 05:05:03;;;;;;;4.60;2.35;;;22.90;54.30;;;;;;6296419;28;20040;-72
2021/06/27 05:08:04;;;;;;;3.47;2.55;;;22.90;54.30;;;;;;6295565;28;20090;-74
2021/06/27 05:11:06;;;;;;;4.13;2.55;;;22.90;54.40;;;;;;6313437;28;20056;-73
2021/06/27 05:14:07;;;;;;;5.55;2.40;;;22.90;54.40;;;;;;6313548;28;20024;-75
2021/06/27 05:21:30;;;;;;;6.32;2.63;;;22.90;54.40;;;;;;6296426;28;20369;-73
2021/06/27 05:24:31;;;;;;;7.30;2.85;;;23.00;54.20;;;;;;6298299;28;20044;-72
2021/06/27 05:27:32;;;;;;;4.20;2.63;;;23.00;54.10;;;;;;6296235;28;20366;-72
2021/06/27 05:30:33;;;;;;;3.63;2.63;;;23.00;53.80;;;;;;6295107;28;20036;-72
2021/06/27 05:33:34;;;;;;;4.40;2.47;;;23.10;53.70;;;;;;6298815;28;20037;-74
2021/06/27 05:36:37;;;;;;;5.97;2.72;;;23.10;53.60;;;;;;6272125;28;20044;-74
2021/06/27 05:39:38;;;;;;;3.75;2.88;;;23.10;54.30;;;;;;6273194;28;20122;-74
2021/06/27 05:42:39;;;;;;;9.55;2.88;;;23.10;53.70;;;;;;6286376;28;20420;-75
2021/06/27 05:45:40;;;;;;;4.43;2.58;;;23.10;53.80;;;;;;6295184;28;20040;-74
2021/06/27 05:48:41;;;;;;;10.75;2.90;;;23.10;53.80;;;;;;6297166;28;20040;-75
2021/06/27 05:51:42;;;;;;;6.28;2.17;;;23.10;53.70;;;;;;6295978;28;20036;-74
2021/06/27 05:54:44;;;;;;;4.07;2.33;;;23.20;53.70;;;;;;6297277;28;20028;-74
2021/06/27 05:57:45;;;;;;;4.68;2.58;;;23.20;53.70;;;;;;6296358;28;20492;-73
2021/06/27 06:00:46;;;;;;;3.67;2.63;;;23.30;53.60;;;;;;6284431;28;20035;-74
2021/06/27 06:03:47;;;;;;;3.13;2.70;;;23.30;53.60;;;;;;6308878;28;20039;-73
2021/06/27 06:06:49;;;;;;;3.55;2.45;;;23.40;53.60;;;;;;6327407;28;20138;-73
2021/06/27 06:09:50;;;;;;;8.20;3.13;;;23.40;53.50;;;;;;6310192;28;20044;-73
2021/06/27 06:12:51;;;;;;;3.78;2.78;;;23.50;53.40;;;;;;6326997;28;20433;-73
2021/06/27 06:15:52;;;;;;;4.65;2.80;;;23.60;53.20;;;;;;6309791;28;20024;-73
2021/06/27 06:18:55;;;;;;;4.43;2.97;;;23.70;52.70;;;;;;6284831;28;20347;-73
2021/06/27 06:21:56;;;;;;;6.80;2.67;;;23.70;52.30;;;;;;6284316;28;20045;-73
2021/06/27 06:24:58;;;;;;;8.10;2.55;;;23.80;52.00;;;;;;6283478;28;20055;-73
2021/06/27 06:27:59;;;;;;;7.38;2.60;;;23.80;51.70;;;;;;6284872;28;20040;-73
2021/06/27 06:31:01;;;;;;;4.78;2.72;;;23.90;51.40;;;;;;6302386;28;20047;-73
2021/06/27 06:34:02;;;;;;;7.60;2.88;;;24.00;51.20;;;;;;6299980;28;20128;-75
2021/06/27 06:37:04;;;;;;;5.50;2.47;;;24.10;51.00;;;;;;6300502;28;20051;-74
2021/06/27 06:40:06;;;;;;;7.95;2.55;;;24.30;50.60;;;;;;6283230;28;20039;-74
2021/06/27 06:43:08;;;;;;;5.32;2.45;;;24.30;50.20;;;;;;6298308;28;20036;-74
2021/06/27 06:46:09;;;;;;;4.72;2.60;;;24.50;49.90;;;;;;6300310;28;20523;-74
2021/06/27 06:49:10;;;;;;;4.70;2.40;;;24.60;49.60;;;;;;6284186;28;20476;-74
2021/06/27 06:52:11;;;;;;;6.53;2.90;;;24.70;49.10;;;;;;6267223;28;20032;-74
2021/06/27 06:55:12;;;;;;;5.22;2.50;;;24.70;48.80;;;;;;6283643;28;20472;-74
2021/06/27 06:58:14;;;;;;;7.60;2.97;;;24.80;48.80;;;;;;6276008;28;20115;-73
2021/06/27 07:01:16;;;;;;;8.70;3.08;;;25.00;48.60;;;;;;6300412;28;20040;-73
2021/06/27 07:04:18;;;;;;;3.95;2.53;;;25.10;48.30;;;;;;6300147;28;20086;-73
2021/06/27 07:07:19;;;;;;;3.03;2.20;;;25.10;48.00;;;;;;6307799;28;20042;-74
2021/06/27 07:10:20;;;;;;;3.88;2.10;;;25.20;47.70;;;;;;6325298;28;20453;-74
2021/06/27 07:13:22;;;;;;;3.15;2.38;;;25.40;47.40;;;;;;6325101;28;20365;-73
2021/06/27 07:16:23;;;;;;;10.10;2.35;;;25.40;46.90;;;;;;6303645;28;20403;-75
2021/06/27 07:19:27;;;;;;;4.50;2.10;;;25.50;46.80;;;;;;6297208;28;20029;-74
2021/06/27 07:22:29;;;;;;;4.78;2.92;;;25.60;46.50;;;;;;6316389;28;20041;-74
2021/06/27 07:25:30;;;;;;;4.00;2.20;;;25.70;46.40;;;;;;6299867;28;20040;-74
2021/06/27 07:28:31;;;;;;;3.65;2.10;;;25.80;46.30;;;;;;6266695;28;20048;-74
2021/06/27 07:31:32;;;;;;;5.88;2.17;;;26.00;46.10;;;;;;6274600;28;20477;-74
2021/06/27 07:34:34;;;;;;;2.75;2.38;;;26.10;45.90;;;;;;6298155;28;20044;-74
2021/06/27 07:37:35;;;;;;;3.85;2.28;;;26.20;45.80;;;;;;6299570;28;20037;-74
2021/06/27 07:40:36;;;;;;;6.95;2.60;;;26.30;45.60;;;;;;6299416;28;20519;-74
2021/06/27 07:43:38;;;;;;;7.18;2.25;;;26.40;45.40;;;;;;6300026;28;20071;-73
2021/06/27 07:46:39;;;;;;;3.40;1.90;;;26.60;45.30;;;;;;6296815;28;20047;-75
2021/06/27 07:49:41;;;;;;;4.68;2.50;;;26.70;45.20;;;;;;6300489;28;20052;-75
2021/06/27 07:52:42;;;;;;;4.45;2.70;;;26.70;45.00;;;;;;6298925;28;20335;-74
2021/06/27 07:55:44;;;;;;;5.53;2.92;;;26.80;44.90;;;;;;6299522;28;20037;-73
2021/06/27 07:58:45;;;;;;;8.57;2.38;;;26.80;44.40;;;;;;6282172;28;20055;-73
2021/06/27 08:01:46;;;;;;;3.55;2.33;;;26.90;44.40;;;;;;6278908;28;20453;-73
2021/06/27 08:04:47;;;;;;;3.03;2.20;;;27.00;43.80;;;;;;6272469;28;20043;-73
2021/06/27 08:07:48;;;;;;;2.30;2.08;;;27.10;43.50;;;;;;6257391;28;20051;-74
2021/06/27 08:10:49;;;;;;;4.03;2.13;;;27.20;43.10;;;;;;6274947;28;20057;-73
2021/06/27 08:13:51;;;;;;;4.43;2.78;;;27.40;43.00;;;;;;6272683;28;20062;-74
2021/06/27 08:16:52;;;;;;;3.33;2.22;;;27.50;42.90;;;;;;6288379;28;20047;-72
2021/06/27 08:19:53;;;;;;;5.68;2.55;;;27.60;42.70;;;;;;6299393;28;20036;-74
2021/06/27 08:22:54;;;;;;;3.65;2.40;;;27.80;42.80;;;;;;6297810;28;20052;-75
2021/06/27 08:25:55;;;;;;;6.90;2.03;;;27.90;42.70;;;;;;6298369;28;20461;-74
2021/06/27 08:28:56;;;;;;;9.20;2.17;;;28.10;42.70;;;;;;6298270;28;20469;-74
2021/06/27 08:31:58;;;;;;;4.18;2.13;;;28.30;42.70;;;;;;6296855;28;20424;-73
2021/06/27 08:34:59;;;;;;;6.50;2.00;;;28.40;42.40;;;;;;6281784;28;20163;-74
2021/06/27 08:38:00;;;;;;;7.50;2.25;;;28.70;42.00;;;;;;6278187;28;20113;-74
2021/06/27 08:41:01;;;;;;;4.30;2.17;;;28.80;41.30;;;;;;6298146;28;20032;-73
2021/06/27 08:44:05;;;;;;;5.40;2.33;;;28.90;41.00;;;;;;6297587;28;20036;-73
2021/06/27 08:47:14;;;;;;;4.05;2.28;;;29.10;41.00;;;;;;6272116;28;20033;-75
2021/06/27 08:50:16;;;;;;;9.15;2.42;;;29.20;40.50;;;;;;6280936;28;20040;-75
2021/06/27 08:53:18;;;;;;;2.83;2.47;;;29.20;40.30;;;;;;6297597;28;20457;-75
2021/06/27 08:56:19;;;;;;;14.35;7.05;;;29.10;40.40;;;;;;6297795;28;20047;-75
2021/06/27 08:59:20;;;;;;;6.07;3.55;;;29.10;40.40;;;;;;6297627;28;20048;-75
2021/06/27 09:02:21;;;;;;;5.38;2.70;;;29.00;40.60;;;;;;6313605;28;20119;-74
2021/06/27 09:05:23;;;;;;;5.07;2.05;;;29.00;40.80;;;;;;6297177;28;20028;-74
2021/06/27 09:08:25;;;;;;;4.40;2.25;;;29.00;41.00;;;;;;6297147;28;20047;-74
2021/06/27 09:11:26;;;;;;;2.75;2.17;;;29.00;40.90;;;;;;6296671;28;20474;-74
2021/06/27 09:14:40;;;;;;;7.45;2.40;;;29.00;40.90;;;;;;6297408;28;20040;-74
2021/06/27 09:17:44;;;;;;;4.82;2.30;;;29.00;41.00;;;;;;6296950;28;20032;-74
2021/06/27 09:20:48;;;;;;;4.03;2.83;;;29.00;41.20;;;;;;6297711;28;20032;-74
2021/06/27 09:23:49;;;;;;;5.13;3.08;;;29.00;41.20;;;;;;6313348;28;20040;-74
2021/06/27 09:26:50;;;;;;;5.93;4.50;;;29.00;41.20;;;;;;6296139;28;20039;-74
2021/06/27 09:29:53;;;;;;;7.30;4.20;;;29.20;41.10;;;;;;6298440;28;20029;-74
2021/06/27 09:33:03;;;;;;;3.63;2.28;;;29.30;40.90;;;;;;6296606;28;20044;-74
2021/06/27 09:36:07;;;;;;;5.68;2.75;;;29.50;40.60;;;;;;6301535;28;20108;-75
2021/06/27 09:39:13;;;;;;;2.80;2.35;;;29.60;40.40;;;;;;6302288;28;20388;-74
2021/06/27 09:42:14;;;;;;;3.80;2.40;;;29.70;40.20;;;;;;6302291;28;20040;-73
2021/06/27 09:45:15;;;;;;;6.65;2.65;;;29.80;40.20;;;;;;6301967;28;20032;-74
2021/06/27 09:48:17;;;;;;;4.30;2.70;;;29.80;40.20;;;;;;6301990;28;20052;-74
2021/06/27 09:51:20;;;;;;;4.13;2.58;;;29.90;40.30;;;;;;6303997;28;20037;-73
2021/06/27 09:54:25;;;;;;;8.48;2.60;;;29.90;40.20;;;;;;6308050;28;20123;-74
2021/06/27 09:57:26;;;;;;;3.90;2.22;;;29.90;40.10;;;;;;6304418;28;20032;-73
2021/06/27 10:00:29;;;;;;;3.35;2.55;;;30.00;40.00;;;;;;6302848;28;20119;-73
2021/06/27 10:03:51;;;;;;;3.65;2.33;;;30.00;39.80;;;;;;6305379;28;20441;-73
2021/06/27 10:06:55;;;;;;;9.15;2.50;;;30.10;39.60;;;;;;6254086;28;20440;-74
2021/06/27 10:09:58;;;;;;;6.20;2.30;;;30.20;39.40;;;;;;6267232;28;20029;-74
2021/06/27 10:13:00;;;;;;;6.80;2.97;;;30.30;39.10;;;;;;6269161;28;20052;-74
2021/06/27 10:16:02;;;;;;;3.97;2.40;;;30.50;38.50;;;;;;6295441;28;20055;-74
2021/06/27 10:19:04;;;;;;;2.83;2.10;;;30.70;38.20;;;;;;6299072;28;20053;-74
2021/06/27 10:22:05;;;;;;;4.00;2.70;;;30.90;37.60;;;;;;6297231;28;20036;-74
2021/06/27 10:25:10;;;;;;;3.80;2.67;;;31.10;37.50;;;;;;6297843;28;20350;-74
2021/06/27 10:28:13;;;;;;;4.70;2.60;;;31.30;36.90;;;;;;6297919;28;20068;-74
2021/06/27 10:31:16;;;;;;;3.28;2.05;;;31.40;36.60;;;;;;6299551;28;20377;-74
2021/06/27 10:34:18;;;;;;;2.50;2.00;;;31.50;36.40;;;;;;6297604;28;20339;-74
2021/06/27 10:37:33;;;;;;;2.42;2.03;;;31.70;36.10;;;;;;6297258;28;20063;-74
2021/06/27 10:40:54;;;;;;;9.32;4.68;;;31.80;35.60;;;;;;6294188;28;20028;-74
2021/06/27 10:44:04;;;;;;;9.75;5.95;;;32.20;35.00;;;;;;6279687;28;20036;-74
2021/06/27 10:47:07;;;;;;;8.90;4.82;;;32.50;34.40;;;;;;6275641;28;20048;-74
2021/06/27 10:50:10;;;;;;;8.02;5.38;;;32.80;33.90;;;;;;6272990;28;20102;-74
2021/06/27 10:53:11;;;;;;;5.30;2.60;;;32.90;33.80;;;;;;6287963;28;20119;-75
2021/06/27 10:56:12;;;;;;;10.85;5.95;;;33.20;33.40;;;;;;6273156;28;20170;-75
2021/06/27 10:59:40;;;;;;;9.88;4.93;;;33.40;33.10;;;;;;6272534;28;20098;-75
2021/06/27 11:02:42;;;;;;;7.23;3.33;;;33.60;32.40;;;;;;6293526;28;20094;-75
2021/06/27 11:05:44;;;;;;;4.80;2.90;;;33.80;32.00;;;;;;6314387;28;20362;-75
2021/06/27 11:08:55;;;;;;;3.22;2.20;;;33.90;31.60;;;;;;6297653;28;20028;-75
2021/06/27 11:11:58;;;;;;;1.70;1.60;;;34.00;31.40;;;;;;6298540;28;20109;-75
2021/06/27 11:15:15;;;;;;;2.60;1.98;;;34.20;30.80;;;;;;6313787;28;20021;-75
2021/06/27 11:18:40;;;;;;;2.80;1.75;;;34.30;30.60;;;;;;6312850;28;20107;-74
2021/06/27 11:21:41;;;;;;;3.40;2.10;;;34.30;30.60;;;;;;6293443;28;20048;-74
2021/06/27 11:24:43;;;;;;;6.72;2.13;;;34.50;30.70;;;;;;6295304;28;20035;-75
2021/06/27 11:27:45;;;;;;;4.90;2.22;;;34.80;30.90;;;;;;6295234;28;20044;-74
2021/06/27 11:30:48;;;;;;;4.28;2.20;;;35.20;30.80;;;;;;6294695;28;20063;-74
2021/06/27 11:34:20;;;;;;;14.88;2.50;;;35.80;30.30;;;;;;6278668;28;20039;-74
2021/06/27 11:37:22;;;;;;;6.03;2.60;;;36.70;29.60;;;;;;6262166;28;20033;-74
2021/06/27 11:40:41;;;;;;;11.10;4.22;;;36.90;29.00;;;;;;6248820;28;20074;-74
2021/06/27 11:44:02;;;;;;;4.45;2.35;;;36.50;29.30;;;;;;6258907;28;20043;-74
2021/06/27 11:47:22;;;;;;;3.95;2.08;;;36.20;29.70;;;;;;6309518;28;20040;-75
2021/06/27 11:50:31;;;;;;;4.07;2.00;;;36.10;29.90;;;;;;6272513;28;20037;-74
2021/06/27 11:53:33;;;;;;;5.90;2.45;;;35.90;30.00;;;;;;6293483;28;20051;-75
2021/06/27 11:56:56;;;;;;;2.33;1.88;;;35.60;30.30;;;;;;6293646;28;20367;-74
2021/06/27 11:59:57;;;;;;;3.95;2.00;;;35.30;30.60;;;;;;6293396;28;20037;-75
2021/06/27 12:03:10;;;;;;;2.33;1.90;;;35.00;31.00;;;;;;6290832;28;20370;-74
2021/06/27 12:06:12;;;;;;;2.65;1.90;;;35.00;31.00;;;;;;6294288;28;20389;-75
2021/06/27 12:09:13;;;;;;;2.65;1.67;;;34.90;31.10;;;;;;6295109;28;20082;-74
2021/06/27 12:12:14;;;;;;;3.97;1.83;;;34.70;31.40;;;;;;6294590;28;20494;-74
2021/06/27 12:15:19;;;;;;;5.25;1.83;;;34.40;32.00;;;;;;6294337;28;20048;-74
2021/06/27 12:18:28;;;;;;;2.58;1.85;;;34.20;32.50;;;;;;6311131;28;20028;-74
2021/06/27 12:21:29;;;;;;;2.90;1.67;;;34.10;32.70;;;;;;6293167;28;20486;-74
2021/06/27 12:24:31;;;;;;;2.58;2.00;;;34.00;32.60;;;;;;6294068;28;20123;-74
2021/06/27 12:27:32;;;;;;;1.67;1.58;;;34.20;32.30;;;;;;6293367;28;20051;-74
2021/06/27 12:30:47;;;;;;;2.63;2.08;;;34.80;31.70;;;;;;6295656;28;20060;-75
2021/06/27 12:33:50;;;;;;;3.22;2.20;;;35.30;31.20;;;;;;6252397;28;20048;-74
2021/06/27 12:36:51;;;;;;;2.00;1.80;;;36.00;30.30;;;;;;6266138;28;20025;-75
2021/06/27 12:39:52;;;;;;;2.83;1.85;;;36.50;29.70;;;;;;6268090;28;20056;-75
2021/06/27 12:42:54;;;;;;;2.00;1.70;;;36.70;29.40;;;;;;6291195;28;20033;-75
2021/06/27 12:46:15;;;;;;;5.05;1.98;;;36.80;29.30;;;;;;6267534;28;20048;-75
2021/06/27 12:49:29;;;;;;;3.00;1.98;;;36.60;29.40;;;;;;6266888;28;20117;-75
2021/06/27 12:52:30;;;;;;;2.15;1.80;;;36.40;29.40;;;;;;6227879;28;20417;-74
2021/06/27 12:55:32;;;;;;;2.00;1.80;;;36.10;29.60;;;;;;6226827;28;20030;-75
2021/06/27 12:58:57;;;;;;;3.75;1.52;;;35.90;30.00;;;;;;6268155;28;20033;-75
2021/06/27 13:02:16;;;;;;;3.10;1.75;;;35.90;30.10;;;;;;6244153;28;20082;-75
2021/06/27 13:05:19;;;;;;;2.65;1.88;;;35.80;30.00;;;;;;6293090;28;20052;-75
2021/06/27 13:08:20;;;;;;;3.33;1.63;;;35.60;30.90;;;;;;6293266;28;20418;-74
2021/06/27 13:11:21;;;;;;;6.30;2.03;;;35.70;30.40;;;;;;6292840;28;20043;-75
2021/06/27 13:14:24;;;;;;;3.92;1.88;;;35.80;30.50;;;;;;6307928;28;20040;-75
2021/06/27 13:17:25;;;;;;;3.65;1.63;;;36.00;30.40;;;;;;6297692;28;20362;-75
2021/06/27 13:20:36;;;;;;;2.95;1.90;;;36.50;30.00;;;;;;6291622;28;20036;-75
2021/06/27 13:23:37;;;;;;;3.25;2.13;;;36.60;29.80;;;;;;6293065;28;20084;-75
2021/06/27 13:26:40;;;;;;;6.05;1.75;;;36.70;29.60;;;;;;6292629;28;20044;-75
2021/06/27 13:29:41;;;;;;;3.40;1.98;;;36.90;29.60;;;;;;6293408;28;20036;-74
2021/06/27 13:32:43;;;;;;;7.40;2.35;;;36.90;29.90;;;;;;6291051;28;20055;-75
2021/06/27 13:35:49;;;;;;;7.93;2.10;;;37.30;29.60;;;;;;6292407;28;20395;-75
2021/06/27 13:38:53;;;;;;;3.45;1.60;;;38.10;28.80;;;;;;6290798;28;20028;-75
2021/06/27 13:41:54;;;;;;;3.72;1.67;;;39.20;27.70;;;;;;6292703;28;20039;-75
2021/06/27 13:45:03;;;;;;;3.40;2.05;;;40.40;26.60;;;;;;6290350;28;20040;-73
2021/06/27 13:48:05;;;;;;;2.78;1.70;;;41.70;25.20;;;;;;6273525;28;20123;-73
2021/06/27 13:51:07;;;;;;;2.00;1.50;;;42.80;24.00;;;;;;6270442;28;20037;-73
2021/06/27 13:54:09;;;;;;;1.50;1.40;;;43.70;23.30;;;;;;6267745;28;20032;-74
2021/06/27 13:57:10;;;;;;;9.27;1.83;;;44.30;22.60;;;;;;6269516;28;20132;-74
2021/06/27 14:00:14;;;;;;;4.03;1.60;;;44.70;21.90;;;;;;6271668;28;20033;-73
2021/06/27 14:03:16;;;;;;;2.88;1.48;;;45.20;21.50;;;;;;6290315;28;20032;-74
2021/06/27 14:06:18;;;;;;;3.38;1.60;;;45.80;21.00;;;;;;6295768;28;20044;-74
2021/06/27 14:09:20;;;;;;;3.95;1.70;;;46.10;20.60;;;;;;6290922;28;20060;-75
2021/06/27 14:12:21;;;;;;;4.75;1.50;;;46.70;20.30;;;;;;6270429;28;20028;-74
2021/06/27 14:15:23;;;;;;;4.55;1.38;;;47.30;19.80;;;;;;6259040;28;20120;-74
2021/06/27 14:18:26;;;;;;;3.08;1.50;;;48.00;19.20;;;;;;6274059;28;20033;-75
2021/06/27 14:21:29;;;;;;;1.83;1.40;;;48.50;18.70;;;;;;6278509;28;20426;-76
2021/06/27 14:24:32;;;;;;;11.43;1.70;;;48.70;18.50;;;;;;6302619;28;20041;-74
2021/06/27 14:27:33;;;;;;;3.20;1.40;;;48.90;18.30;;;;;;6297541;28;20051;-76
2021/06/27 14:30:35;;;;;;;2.13;1.50;;;49.00;18.10;;;;;;6299324;28;20041;-75
2021/06/27 14:33:37;;;;;;;1.35;1.20;;;48.40;18.30;;;;;;6300907;28;20049;-76
2021/06/27 14:36:39;;;;;;;6.75;1.48;;;47.70;18.70;;;;;;6259085;28;20110;-75
2021/06/27 14:39:40;;;;;;;2.20;1.63;;;47.60;18.90;;;;;;6286959;28;20037;-74
2021/06/27 14:42:42;;;;;;;1.67;1.55;;;47.50;19.00;;;;;;6287020;28;20043;-73
2021/06/27 14:45:43;;;;;;;2.25;1.40;;;47.60;18.80;;;;;;6276527;28;20353;-76
2021/06/27 14:48:45;;;;;;;3.47;1.40;;;47.80;18.70;;;;;;6295594;28;20120;-76
2021/06/27 14:51:47;;;;;;;2.97;1.20;;;48.10;18.40;;;;;;6297918;28;20101;-75
2021/06/27 14:54:48;;;;;;;2.55;1.42;;;48.20;18.30;;;;;;6281474;28;20032;-76
2021/06/27 14:57:50;;;;;;;1.55;1.30;;;48.30;18.30;;;;;;6298160;28;20409;-73
2021/06/27 15:00:51;;;;;;;2.25;1.40;;;48.20;18.30;;;;;;6315659;28;20381;-74
2021/06/27 15:03:52;;;;;;;2.08;1.58;;;48.40;18.10;;;;;;6283806;28;20151;-74
2021/06/27 15:06:53;;;;;;;3.95;1.45;;;48.50;18.00;;;;;;6281816;28;20040;-74
2021/06/27 15:09:55;;;;;;;5.13;1.52;;;48.50;17.90;;;;;;6315036;28;20070;-74
2021/06/27 15:12:56;;;;;;;6.47;2.25;;;48.40;17.90;;;;;;6314898;28;20029;-74
2021/06/27 15:15:58;;;;;;;4.18;1.60;;;48.20;18.00;;;;;;6298020;28;20083;-73
2021/06/27 15:18:59;;;;;;;1.60;1.30;;;47.70;18.30;;;;;;6296739;28;20029;-74
2021/06/27 15:22:01;;;;;;;1.88;1.60;;;47.10;18.90;;;;;;6294227;28;20105;-74
2021/06/27 15:25:03;;;;;;;2.03;1.30;;;46.40;19.40;;;;;;6280977;28;20115;-74
2021/06/27 15:28:05;;;;;;;2.63;1.42;;;45.80;19.40;;;;;;6289816;28;20512;-73
2021/06/27 15:31:07;;;;;;;1.73;1.60;;;45.50;19.50;;;;;;6297835;28;20032;-74
2021/06/27 15:34:08;;;;;;;1.48;1.30;;;44.90;19.90;;;;;;6271663;28;20589;-74
2021/06/27 15:37:09;;;;;;;3.40;1.60;;;44.00;20.40;;;;;;6255385;28;20037;-75
2021/06/27 15:40:11;;;;;;;3.33;1.30;;;42.70;21.20;;;;;;6260299;28;20040;-75
2021/06/27 15:43:12;;;;;;;1.55;1.45;;;41.90;22.10;;;;;;6270556;28;20033;-75
2021/06/27 15:46:14;;;;;;;3.65;1.67;;;41.20;22.90;;;;;;6278341;28;20178;-75
2021/06/27 15:49:15;;;;;;;1.73;1.38;;;40.80;23.50;;;;;;6275294;28;20463;-75
2021/06/27 15:52:17;;;;;;;2.25;1.60;;;40.80;23.60;;;;;;6269348;28;20037;-75
2021/06/27 15:55:18;;;;;;;3.40;1.40;;;41.20;23.40;;;;;;6261514;28;20409;-75